createdAt,value
2023-06-10T00:01:53.541Z,1012.5
2023-06-10T00:04:55.105Z,1012.5
2023-06-10T00:07:53.473Z,1012.5
2023-06-10T00:10:53.521Z,1012.5
2023-06-10T00:13:53.581Z,1012.5
2023-06-10T00:16:53.998Z,1012.5
2023-06-10T00:19:53.528Z,1012.5
2023-06-10T00:22:53.671Z,1012.5
2023-06-10T00:25:53.796Z,1012.5
2023-06-10T00:28:53.439Z,1012.5
2023-06-10T00:31:53.577Z,1012.5
2023-06-10T00:34:53.496Z,1012.5
2023-06-10T00:37:53.488Z,1012.5
2023-06-10T00:40:53.458Z,1012.6
2023-06-10T00:43:53.510Z,1012.6
2023-06-10T00:46:53.789Z,1012.6
2023-06-10T00:49:53.556Z,1012.6
2023-06-10T00:52:55.713Z,1012.6
2023-06-10T00:55:53.425Z,1012.6
2023-06-10T00:58:53.542Z,1012.6
2023-06-10T01:01:55.911Z,1012.6
2023-06-10T01:04:53.747Z,1012.6
2023-06-10T01:07:53.501Z,1012.6
2023-06-10T01:10:53.496Z,1012.6
2023-06-10T01:13:53.499Z,1012.5
2023-06-10T01:16:53.739Z,1012.6
2023-06-10T01:19:53.737Z,1012.6
2023-06-10T01:22:55.956Z,1012.6
2023-06-10T01:25:53.746Z,1012.6
2023-06-10T01:28:53.506Z,1012.7
2023-06-10T01:31:53.867Z,1012.7
2023-06-10T01:34:53.798Z,1012.7
2023-06-10T01:37:53.787Z,1012.7
2023-06-10T01:40:53.601Z,1012.7
2023-06-10T01:43:53.490Z,1012.7
2023-06-10T01:46:53.699Z,1012.6
2023-06-10T01:49:53.567Z,1012.6
2023-06-10T01:52:53.512Z,1012.6
2023-06-10T01:55:53.488Z,1012.6
2023-06-10T01:58:53.528Z,1012.6
2023-06-10T02:01:53.872Z,1012.6
2023-06-10T02:04:54.127Z,1012.6
2023-06-10T02:07:53.536Z,1012.6
2023-06-10T02:10:53.434Z,1012.6
2023-06-10T02:13:55.257Z,1012.7
2023-06-10T02:16:53.609Z,1012.6
2023-06-10T02:19:53.591Z,1012.6
2023-06-10T02:22:53.417Z,1012.7
2023-06-10T02:25:53.748Z,1012.7
2023-06-10T02:28:53.489Z,1012.7
2023-06-10T02:31:53.745Z,1012.8
2023-06-10T02:34:53.624Z,1012.8
2023-06-10T02:37:53.535Z,1012.8
2023-06-10T02:40:53.512Z,1012.8
2023-06-10T02:43:53.422Z,1012.8
2023-06-10T02:46:53.798Z,1012.8
2023-06-10T02:49:53.578Z,1012.7
2023-06-10T02:52:53.402Z,1012.8
2023-06-10T02:55:53.445Z,1012.8
2023-06-10T02:58:53.525Z,1012.8
2023-06-10T03:01:53.864Z,1012.7
2023-06-10T03:04:53.801Z,1012.8
2023-06-10T03:07:53.549Z,1012.8
2023-06-10T03:10:53.506Z,1012.8
2023-06-10T03:13:53.507Z,1012.8
2023-06-10T03:16:53.746Z,1012.7
2023-06-10T03:19:53.774Z,1012.8
2023-06-10T03:22:53.494Z,1012.8
2023-06-10T03:25:53.621Z,1012.8
2023-06-10T03:28:53.450Z,1012.8
2023-06-10T03:31:53.762Z,1012.8
2023-06-10T03:34:53.612Z,1012.8
2023-06-10T03:37:53.451Z,1012.9
2023-06-10T03:40:53.490Z,1013.0
2023-06-10T03:43:53.696Z,1012.9
2023-06-10T03:46:53.782Z,1013.0
2023-06-10T03:49:53.557Z,1012.9
2023-06-10T03:52:53.511Z,1013.0
2023-06-10T03:55:53.648Z,1013.0
2023-06-10T03:58:53.518Z,1013.0
2023-06-10T04:01:53.566Z,1012.9
2023-06-10T04:04:53.998Z,1013.0
2023-06-10T04:07:53.926Z,1013.0
2023-06-10T04:10:53.440Z,1013.0
2023-06-10T04:13:53.704Z,1013.0
2023-06-10T04:16:53.644Z,1013.1
2023-06-10T04:19:53.535Z,1013.1
2023-06-10T04:22:53.569Z,1013.1
2023-06-10T04:25:53.759Z,1013.2
2023-06-10T04:28:53.513Z,1013.2
2023-06-10T04:31:53.658Z,1013.2
2023-06-10T04:34:53.503Z,1013.3
2023-06-10T04:37:53.483Z,1013.2
2023-06-10T04:40:53.495Z,1013.2
2023-06-10T04:43:53.473Z,1013.3
2023-06-10T04:46:57.193Z,1013.3
2023-06-10T04:49:53.514Z,1013.3
2023-06-10T04:52:53.699Z,1013.3
2023-06-10T04:55:53.446Z,1013.3
2023-06-10T04:58:56.846Z,1013.4
2023-06-10T05:01:53.649Z,1013.3
2023-06-10T05:04:54.359Z,1013.4
2023-06-10T05:07:53.438Z,1013.4
2023-06-10T05:10:53.581Z,1013.4
2023-06-10T05:13:53.580Z,1013.3
2023-06-10T05:16:53.601Z,1013.3
2023-06-10T05:19:56.533Z,1013.3
2023-06-10T05:22:53.467Z,1013.3
2023-06-10T05:25:53.649Z,1013.3
2023-06-10T05:28:53.531Z,1013.4
2023-06-10T05:31:53.660Z,1013.4
2023-06-10T05:34:53.651Z,1013.4
2023-06-10T05:37:53.513Z,1013.4
2023-06-10T05:40:53.591Z,1013.4
2023-06-10T05:43:53.485Z,1013.5
2023-06-10T05:46:53.659Z,1013.5
2023-06-10T05:49:53.602Z,1013.4
2023-06-10T05:52:53.390Z,1013.4
2023-06-10T05:55:53.494Z,1013.4
2023-06-10T05:58:53.399Z,1013.4
2023-06-10T06:01:53.656Z,1013.4
2023-06-10T06:05:04.168Z,1013.5
2023-06-10T06:07:53.573Z,1013.4
2023-06-10T06:10:53.438Z,1013.4
2023-06-10T06:13:53.820Z,1013.4
2023-06-10T06:16:53.786Z,1013.4
2023-06-10T06:19:54.134Z,1013.4
2023-06-10T06:22:53.543Z,1013.4
2023-06-10T06:25:54.451Z,1013.3
2023-06-10T06:28:53.968Z,1013.3
2023-06-10T06:31:54.304Z,1013.5
2023-06-10T06:34:53.590Z,1013.4
2023-06-10T06:37:53.508Z,1013.4
2023-06-10T06:40:53.663Z,1013.4
2023-06-10T06:43:53.419Z,1013.4
2023-06-10T06:46:53.586Z,1013.5
2023-06-10T06:49:54.262Z,1013.4
2023-06-10T06:52:53.524Z,1013.5
2023-06-10T06:55:53.459Z,1013.5
2023-06-10T06:58:54.971Z,1013.5
2023-06-10T07:01:53.696Z,1013.5
2023-06-10T07:05:03.597Z,1013.6
2023-06-10T07:07:54.860Z,1013.6
2023-06-10T07:10:53.530Z,1013.6
2023-06-10T07:13:53.498Z,1013.7
2023-06-10T07:16:53.760Z,1013.6
2023-06-10T07:19:54.976Z,1013.6
2023-06-10T07:22:53.608Z,1013.6
2023-06-10T07:25:53.942Z,1013.6
2023-06-10T07:28:53.503Z,1013.6
2023-06-10T07:31:54.056Z,1013.7
2023-06-10T07:34:53.650Z,1013.7
2023-06-10T07:37:53.661Z,1013.7
2023-06-10T07:40:53.688Z,1013.6
2023-06-10T07:43:53.503Z,1013.6
2023-06-10T07:46:53.638Z,1013.7
2023-06-10T07:49:53.533Z,1013.7
2023-06-10T07:52:53.593Z,1013.7
2023-06-10T07:55:54.895Z,1013.7
2023-06-10T07:58:53.687Z,1013.8
2023-06-10T08:01:53.653Z,1013.8
2023-06-10T08:05:04.892Z,1013.7
2023-06-10T08:07:53.581Z,1013.7
2023-06-10T08:10:53.670Z,1013.7
2023-06-10T08:13:53.598Z,1013.7
2023-06-10T08:16:53.915Z,1013.7
2023-06-10T08:19:53.593Z,1013.7
2023-06-10T08:22:53.447Z,1013.7
2023-06-10T08:25:54.193Z,1013.7
2023-06-10T08:28:53.488Z,1013.8
2023-06-10T08:31:53.712Z,1013.7
2023-06-10T08:34:53.637Z,1013.7
2023-06-10T08:37:53.444Z,1013.7
2023-06-10T08:40:53.435Z,1013.7
2023-06-10T08:43:53.503Z,1013.7
2023-06-10T08:46:56.339Z,1013.7
2023-06-10T08:49:53.903Z,1013.7
2023-06-10T08:52:53.468Z,1013.7
2023-06-10T08:55:53.456Z,1013.7
2023-06-10T08:58:53.694Z,1013.8
2023-06-10T09:01:53.827Z,1013.8
2023-06-10T09:07:53.514Z,1013.7
2023-06-10T09:10:57.372Z,1013.7
2023-06-10T09:13:53.439Z,1013.8
2023-06-10T09:16:56.285Z,1013.7
2023-06-10T09:19:53.517Z,1013.7
2023-06-10T09:22:53.500Z,1013.7
2023-06-10T09:25:53.705Z,1013.6
2023-06-10T09:28:53.387Z,1013.6
2023-06-10T09:31:53.843Z,1013.6
2023-06-10T09:34:53.617Z,1013.6
2023-06-10T09:37:53.922Z,1013.6
2023-06-10T09:40:53.396Z,1013.6
2023-06-10T09:43:53.775Z,1013.6
2023-06-10T09:46:53.877Z,1013.6
2023-06-10T09:49:53.618Z,1013.6
2023-06-10T09:52:53.836Z,1013.6
2023-06-10T09:55:53.619Z,1013.6
2023-06-10T09:58:53.905Z,1013.5
2023-06-10T10:01:53.962Z,1013.6
2023-06-10T10:04:53.956Z,1013.6
2023-06-10T10:07:53.905Z,1013.6
2023-06-10T10:10:53.910Z,1013.6
2023-06-10T10:13:53.490Z,1013.5
2023-06-10T10:16:54.153Z,1013.6
2023-06-10T10:19:53.934Z,1013.5
2023-06-10T10:22:53.571Z,1013.5
2023-06-10T10:25:54.148Z,1013.5
2023-06-10T10:28:53.864Z,1013.5
2023-06-10T10:31:53.595Z,1013.4
2023-06-10T10:34:54.039Z,1013.4
2023-06-10T10:37:53.802Z,1013.4
2023-06-10T10:40:53.615Z,1013.4
2023-06-10T10:43:53.821Z,1013.3
2023-06-10T10:46:53.612Z,1013.3
2023-06-10T10:49:53.559Z,1013.3
2023-06-10T10:52:53.489Z,1013.3
2023-06-10T10:55:53.564Z,1013.3
2023-06-10T10:58:53.698Z,1013.3
2023-06-10T11:01:54.098Z,1013.4
2023-06-10T11:04:58.373Z,1013.3
2023-06-10T11:07:53.794Z,1013.2
2023-06-10T11:10:58.609Z,1013.3
2023-06-10T11:13:54.029Z,1013.2
2023-06-10T11:16:53.758Z,1013.2
2023-06-10T11:19:53.575Z,1013.2
2023-06-10T11:22:53.680Z,1013.0
2023-06-10T11:25:54.033Z,1013.2
2023-06-10T11:28:53.617Z,1013.0
2023-06-10T11:31:53.904Z,1013.0
2023-06-10T11:34:55.217Z,1013.2
2023-06-10T11:37:53.479Z,1013.0
2023-06-10T11:40:53.495Z,1013.0
2023-06-10T11:43:53.509Z,1013.0
2023-06-10T11:46:53.883Z,1013.0
2023-06-10T11:49:53.932Z,1013.0
2023-06-10T11:52:53.478Z,1013.0
2023-06-10T11:55:53.458Z,1013.0
2023-06-10T11:58:53.444Z,1013.0
2023-06-10T12:02:01.119Z,1013.0
2023-06-10T12:04:54.001Z,1013.0
2023-06-10T12:07:54.055Z,1013.0
2023-06-10T12:11:16.216Z,1012.9
2023-06-10T12:13:54.551Z,1012.8
2023-06-10T12:16:54.147Z,1012.8
2023-06-10T12:19:57.335Z,1012.7
2023-06-10T12:22:54.094Z,1012.7
2023-06-10T12:25:56.637Z,1012.7
2023-06-10T12:28:53.788Z,1012.6
2023-06-10T12:31:56.763Z,1012.6
2023-06-10T12:34:53.475Z,1012.6
2023-06-10T12:37:57.392Z,1012.6
2023-06-10T12:40:53.525Z,1012.5
2023-06-10T12:43:54.847Z,1012.6
2023-06-10T12:46:53.815Z,1012.6
2023-06-10T12:49:53.557Z,1012.6
2023-06-10T12:52:53.659Z,1012.5
2023-06-10T12:55:53.600Z,1012.6
2023-06-10T12:58:53.606Z,1012.6
2023-06-10T13:01:53.942Z,1012.6
2023-06-10T13:04:53.729Z,1012.6
2023-06-10T13:07:53.499Z,1012.5
2023-06-10T13:10:57.360Z,1012.5
2023-06-10T13:14:03.804Z,1012.5
2023-06-10T13:16:53.569Z,1012.5
2023-06-10T13:19:53.626Z,1012.5
2023-06-10T13:22:53.439Z,1012.5
2023-06-10T13:25:53.613Z,1012.3
2023-06-10T13:28:53.549Z,1012.4
2023-06-10T13:31:53.658Z,1012.3
2023-06-10T13:34:53.768Z,1012.3
2023-06-10T13:37:53.515Z,1012.3
2023-06-10T13:40:53.646Z,1012.3
2023-06-10T13:43:53.569Z,1012.3
2023-06-10T13:46:53.583Z,1012.3
2023-06-10T13:49:53.708Z,1012.2
2023-06-10T13:52:53.423Z,1012.2
2023-06-10T13:55:53.721Z,1012.2
2023-06-10T13:58:53.505Z,1012.2
2023-06-10T14:01:53.665Z,1012.2
2023-06-10T14:04:54.341Z,1012.2
2023-06-10T14:07:53.592Z,1012.1
2023-06-10T14:10:53.588Z,1012.1
2023-06-10T14:13:53.662Z,1012.0
2023-06-10T14:16:55.279Z,1012.0
2023-06-10T14:19:53.581Z,1012.1
2023-06-10T14:22:56.581Z,1012.1
2023-06-10T14:25:53.577Z,1012.2
2023-06-10T14:28:53.422Z,1012.1
2023-06-10T14:31:53.575Z,1012.1
2023-06-10T14:34:53.620Z,1012.1
2023-06-10T14:37:53.581Z,1012.0
2023-06-10T14:40:53.540Z,1012.0
2023-06-10T14:43:53.506Z,1012.0
2023-06-10T14:46:57.289Z,1012.0
2023-06-10T14:49:53.643Z,1012.0
2023-06-10T14:52:57.355Z,1012.0
2023-06-10T14:55:53.545Z,1012.0
2023-06-10T14:58:57.436Z,1012.0
2023-06-10T15:01:53.746Z,1012.0
2023-06-10T15:04:56.760Z,1012.0
2023-06-10T15:07:53.610Z,1012.0
2023-06-10T15:10:56.180Z,1011.9
2023-06-10T15:13:53.587Z,1011.9
2023-06-10T15:16:53.740Z,1011.9
2023-06-10T15:19:53.658Z,1011.9
2023-06-10T15:22:53.507Z,1011.9
2023-06-10T15:26:04.746Z,1011.9
2023-06-10T15:28:54.650Z,1011.9
2023-06-10T15:31:53.877Z,1011.9
2023-06-10T15:34:53.525Z,1011.8
2023-06-10T15:37:53.586Z,1011.8
2023-06-10T15:40:53.509Z,1011.9
2023-06-10T15:43:53.669Z,1011.8
2023-06-10T15:46:56.822Z,1011.8
2023-06-10T15:49:53.532Z,1011.8
2023-06-10T15:52:55.510Z,1011.8
2023-06-10T15:55:53.505Z,1011.8
2023-06-10T15:58:53.621Z,1011.8
2023-06-10T16:01:54.081Z,1011.9
2023-06-10T16:04:54.306Z,1011.8
2023-06-10T16:08:03.849Z,1011.7
2023-06-10T16:10:53.499Z,1011.7
2023-06-10T16:13:56.353Z,1011.7
2023-06-10T16:16:53.642Z,1011.7
2023-06-10T16:19:56.336Z,1011.7
2023-06-10T16:22:53.696Z,1011.7
2023-06-10T16:25:53.766Z,1011.7
2023-06-10T16:28:53.517Z,1011.6
2023-06-10T16:31:53.740Z,1011.6
2023-06-10T16:34:53.605Z,1011.6
2023-06-10T16:37:53.499Z,1011.6
2023-06-10T16:40:53.550Z,1011.6
2023-06-10T16:43:53.590Z,1011.6
2023-06-10T16:46:53.697Z,1011.6
2023-06-10T16:49:53.667Z,1011.5
2023-06-10T16:52:53.521Z,1011.6
2023-06-10T16:55:53.571Z,1011.5
2023-06-10T16:58:53.524Z,1011.6
2023-06-10T17:01:53.679Z,1011.6
2023-06-10T17:04:53.625Z,1011.6
2023-06-10T17:10:53.493Z,1011.6
2023-06-10T17:13:57.686Z,1011.6
2023-06-10T17:16:53.583Z,1011.7
2023-06-10T17:19:53.937Z,1011.7
2023-06-10T17:22:53.477Z,1011.8
2023-06-10T17:25:53.825Z,1011.7
2023-06-10T17:28:53.467Z,1011.8
2023-06-10T17:31:53.641Z,1011.8
2023-06-10T17:34:53.522Z,1011.8
2023-06-10T17:37:53.610Z,1011.7
2023-06-10T17:40:53.459Z,1011.8
2023-06-10T17:43:53.488Z,1011.8
2023-06-10T17:46:53.865Z,1011.8
2023-06-10T17:49:53.652Z,1011.8
2023-06-10T17:52:53.420Z,1011.8
2023-06-10T17:55:53.460Z,1011.9
2023-06-10T17:58:53.520Z,1011.9
2023-06-10T18:01:53.736Z,1011.9
2023-06-10T18:04:54.089Z,1012.0
2023-06-10T18:07:53.511Z,1011.9
2023-06-10T18:10:53.642Z,1011.9
2023-06-10T18:13:53.497Z,1011.9
2023-06-10T18:16:57.309Z,1011.9
2023-06-10T18:19:53.793Z,1011.9
2023-06-10T18:22:56.141Z,1011.9
2023-06-10T18:25:53.739Z,1012.0
2023-06-10T18:28:54.044Z,1012.0
2023-06-10T18:31:53.721Z,1012.0
2023-06-10T18:34:53.600Z,1012.1
2023-06-10T18:37:53.550Z,1012.1
2023-06-10T18:40:56.029Z,1012.2
2023-06-10T18:43:53.460Z,1012.2
2023-06-10T18:46:53.737Z,1012.2
2023-06-10T18:49:53.556Z,1012.2
2023-06-10T18:52:53.543Z,1012.1
2023-06-10T18:55:53.542Z,1012.2
2023-06-10T18:58:53.630Z,1012.2
2023-06-10T19:01:53.610Z,1012.2
2023-06-10T19:04:54.129Z,1012.3
2023-06-10T19:07:53.431Z,1012.3
2023-06-10T19:10:53.432Z,1012.4
2023-06-10T19:13:53.603Z,1012.4
2023-06-10T19:16:53.680Z,1012.4
2023-06-10T19:19:53.530Z,1012.4
2023-06-10T19:22:53.484Z,1012.4
2023-06-10T19:25:53.776Z,1012.4
2023-06-10T19:28:53.466Z,1012.4
2023-06-10T19:31:53.721Z,1012.5
2023-06-10T19:34:53.637Z,1012.5
2023-06-10T19:37:53.561Z,1012.5
2023-06-10T19:40:53.490Z,1012.6
2023-06-10T19:43:53.532Z,1012.6
2023-06-10T19:46:53.812Z,1012.6
2023-06-10T19:49:53.853Z,1012.7
2023-06-10T19:52:53.606Z,1012.7
2023-06-10T19:55:55.045Z,1012.7
2023-06-10T19:58:53.452Z,1012.7
2023-06-10T20:01:53.619Z,1012.8
2023-06-10T20:04:54.632Z,1012.8
2023-06-10T20:07:53.508Z,1012.8
2023-06-10T20:10:59.100Z,1012.8
2023-06-10T20:13:57.398Z,1012.8
2023-06-10T20:16:53.808Z,1012.8
2023-06-10T20:19:53.717Z,1012.8
2023-06-10T20:22:56.649Z,1012.9
2023-06-10T20:25:54.202Z,1012.9
2023-06-10T20:28:53.673Z,1012.9
2023-06-10T20:31:53.620Z,1013.0
2023-06-10T20:34:53.581Z,1013.0
2023-06-10T20:37:53.919Z,1013.0
2023-06-10T20:40:53.498Z,1013.0
2023-06-10T20:43:54.312Z,1013.0
2023-06-10T20:46:53.765Z,1013.0
2023-06-10T20:49:53.647Z,1013.1
2023-06-10T20:52:53.598Z,1013.2
2023-06-10T20:55:53.559Z,1013.2
2023-06-10T20:58:53.445Z,1013.2
2023-06-10T21:01:53.812Z,1013.2
2023-06-10T21:04:53.859Z,1013.2
2023-06-10T21:07:53.476Z,1013.2
2023-06-10T21:11:03.464Z,1013.2
2023-06-10T21:13:53.567Z,1013.2
2023-06-10T21:16:53.746Z,1013.2
2023-06-10T21:19:53.499Z,1013.2
2023-06-10T21:22:53.901Z,1013.2
2023-06-10T21:25:53.607Z,1013.3
2023-06-10T21:28:53.954Z,1013.3
2023-06-10T21:31:54.038Z,1013.3
2023-06-10T21:34:53.537Z,1013.3
2023-06-10T21:37:56.244Z,1013.3
2023-06-10T21:40:53.477Z,1013.3
2023-06-10T21:43:53.406Z,1013.3
2023-06-10T21:46:53.441Z,1013.3
2023-06-10T21:49:53.816Z,1013.3
2023-06-10T21:52:53.496Z,1013.3
2023-06-10T21:55:53.948Z,1013.3
2023-06-10T21:58:53.525Z,1013.3
2023-06-10T22:01:53.914Z,1013.3
2023-06-10T22:04:54.800Z,1013.3
2023-06-10T22:07:53.478Z,1013.3
2023-06-10T22:10:54.704Z,1013.3
2023-06-10T22:13:53.486Z,1013.2
2023-06-10T22:16:53.645Z,1013.2
2023-06-10T22:19:53.503Z,1013.3
2023-06-10T22:22:53.690Z,1013.2
2023-06-10T22:25:53.575Z,1013.2
2023-06-10T22:28:53.965Z,1013.2
2023-06-10T22:31:53.849Z,1013.2
2023-06-10T22:34:53.541Z,1013.2
2023-06-10T22:37:53.627Z,1013.2
2023-06-10T22:40:53.695Z,1013.2
2023-06-10T22:43:53.663Z,1013.2
2023-06-10T22:46:53.780Z,1013.2
2023-06-10T22:49:53.927Z,1013.3
2023-06-10T22:52:53.468Z,1013.3
2023-06-10T22:55:53.496Z,1013.2
2023-06-10T22:58:53.691Z,1013.2
2023-06-10T23:01:53.578Z,1013.2
2023-06-10T23:04:53.855Z,1013.3
2023-06-10T23:07:53.525Z,1013.2
2023-06-10T23:11:03.275Z,1013.3
2023-06-10T23:13:53.478Z,1013.2
2023-06-10T23:16:53.630Z,1013.2
2023-06-10T23:19:53.560Z,1013.2
2023-06-10T23:22:53.466Z,1013.2
2023-06-10T23:25:55.285Z,1013.2
2023-06-10T23:28:53.594Z,1013.3
2023-06-10T23:31:54.153Z,1013.2
2023-06-10T23:34:54.294Z,1013.2
2023-06-10T23:37:53.478Z,1013.2
2023-06-10T23:40:54.000Z,1013.3
2023-06-10T23:43:53.541Z,1013.2
2023-06-10T23:46:53.761Z,1013.2
2023-06-10T23:49:53.646Z,1013.2
2023-06-10T23:52:53.576Z,1013.2
2023-06-10T23:55:53.422Z,1013.0
2023-06-10T23:58:53.480Z,1013.1
